createdAt,value
2018-01-18T00:00:14.127Z,21.41
2018-01-18T00:00:45.790Z,21.40
2018-01-18T00:01:17.419Z,21.40
2018-01-18T00:01:49.050Z,21.35
2018-01-18T00:02:20.673Z,21.35
2018-01-18T00:02:52.298Z,21.35
2018-01-18T00:03:23.962Z,21.36
2018-01-18T00:03:55.587Z,21.38
2018-01-18T00:04:27.214Z,21.38
2018-01-18T00:04:58.838Z,21.35
2018-01-18T00:05:30.506Z,21.35
2018-01-18T00:06:02.126Z,21.35
2018-01-18T00:06:33.745Z,21.35
2018-01-18T00:07:05.374Z,21.35
2018-01-18T00:07:36.998Z,21.36
2018-01-18T00:08:08.670Z,21.36
2018-01-18T00:08:40.290Z,21.36
2018-01-18T00:09:11.908Z,21.37
2018-01-18T00:09:43.530Z,21.38
2018-01-18T00:10:15.149Z,21.36
2018-01-18T00:10:46.770Z,21.35
2018-01-18T00:11:18.393Z,21.37
2018-01-18T00:11:50.013Z,21.31
2018-01-18T00:12:21.634Z,21.36
2018-01-18T00:12:53.253Z,21.39
2018-01-18T00:13:24.921Z,21.41
2018-01-18T00:13:56.548Z,21.44
2018-01-18T00:14:28.170Z,21.47
2018-01-18T00:14:59.794Z,21.42
2018-01-18T00:15:31.420Z,21.40
2018-01-18T00:16:03.070Z,21.51
2018-01-18T00:16:34.694Z,21.51
2018-01-18T00:17:06.314Z,21.51
2018-01-18T00:17:37.942Z,21.48
2018-01-18T00:18:09.561Z,21.49
2018-01-18T00:18:41.226Z,21.31
2018-01-18T00:19:12.921Z,21.46
2018-01-18T00:19:44.602Z,21.47
2018-01-18T00:20:16.225Z,21.51
2018-01-18T00:20:47.876Z,21.63
2018-01-18T00:21:19.502Z,21.60
2018-01-18T00:21:51.122Z,21.53
2018-01-18T00:22:22.750Z,21.48
2018-01-18T00:22:54.642Z,21.43
2018-01-18T00:23:26.273Z,21.37
2018-01-18T00:23:57.934Z,21.34
2018-01-18T00:24:29.566Z,21.34
2018-01-18T00:25:01.186Z,21.33
2018-01-18T00:25:32.814Z,21.36
2018-01-18T00:26:04.478Z,21.35
2018-01-18T00:26:36.146Z,21.32
2018-01-18T00:27:07.773Z,21.30
2018-01-18T00:27:39.402Z,21.13
2018-01-18T00:28:11.025Z,21.30
2018-01-18T00:28:42.645Z,21.33
2018-01-18T00:29:14.294Z,21.32
2018-01-18T00:29:45.921Z,21.31
2018-01-18T00:30:17.546Z,21.32
2018-01-18T00:30:49.229Z,21.32
2018-01-18T00:31:20.850Z,21.29
2018-01-18T00:31:52.474Z,21.32
2018-01-18T00:32:24.101Z,21.30
2018-01-18T00:32:55.725Z,21.31
2018-01-18T00:33:27.346Z,21.29
2018-01-18T00:33:58.979Z,21.29
2018-01-18T00:34:30.606Z,21.27
2018-01-18T00:35:02.236Z,21.26
2018-01-18T00:35:33.867Z,21.25
2018-01-18T00:36:05.494Z,21.26
2018-01-18T00:36:37.118Z,21.28
2018-01-18T00:37:08.746Z,21.24
2018-01-18T00:37:40.369Z,21.29
2018-01-18T00:38:11.990Z,21.28
2018-01-18T00:38:43.614Z,21.24
2018-01-18T00:39:15.237Z,21.27
2018-01-18T00:39:46.865Z,21.23
2018-01-18T00:40:18.485Z,21.23
2018-01-18T00:40:50.110Z,21.22
2018-01-18T00:41:21.778Z,21.21
2018-01-18T00:41:53.405Z,21.14
2018-01-18T00:42:25.025Z,21.23
2018-01-18T00:42:56.653Z,21.25
2018-01-18T00:43:28.273Z,21.22
2018-01-18T00:43:59.934Z,21.22
2018-01-18T00:44:32.606Z,21.26
2018-01-18T00:45:04.230Z,21.26
2018-01-18T00:45:35.862Z,21.25
2018-01-18T00:46:07.491Z,21.17
2018-01-18T00:46:39.113Z,21.28
2018-01-18T00:47:10.751Z,21.20
2018-01-18T00:47:42.376Z,21.28
2018-01-18T00:48:14.005Z,21.18
2018-01-18T00:48:45.642Z,21.25
2018-01-18T00:49:17.322Z,21.16
2018-01-18T00:49:48.950Z,21.15
2018-01-18T00:50:20.574Z,21.19
2018-01-18T00:50:52.197Z,21.12
2018-01-18T00:51:23.827Z,21.13
2018-01-18T00:51:55.454Z,21.17
2018-01-18T00:52:27.082Z,21.17
2018-01-18T00:52:58.705Z,21.26
2018-01-18T00:53:30.334Z,21.18
2018-01-18T00:54:02.870Z,21.25
2018-01-18T00:54:34.550Z,21.17
2018-01-18T00:55:06.202Z,21.14
2018-01-18T00:55:37.839Z,21.21
2018-01-18T00:56:09.530Z,21.02
2018-01-18T00:56:41.185Z,21.13
2018-01-18T00:57:13.721Z,21.23
2018-01-18T00:57:45.407Z,21.10
2018-01-18T00:58:17.149Z,21.09
2018-01-18T00:58:48.810Z,21.28
2018-01-18T00:59:20.512Z,21.19
2018-01-18T00:59:52.154Z,21.21
2018-01-18T01:00:23.796Z,21.28
2018-01-18T01:00:55.443Z,21.20
2018-01-18T01:01:27.082Z,21.28
2018-01-18T01:01:58.725Z,21.17
2018-01-18T01:02:30.376Z,21.24
2018-01-18T01:03:02.031Z,21.18
2018-01-18T01:03:33.667Z,21.26
2018-01-18T01:04:05.334Z,21.24
2018-01-18T01:04:37.008Z,21.24
2018-01-18T01:05:08.634Z,21.28
2018-01-18T01:05:40.262Z,21.33
2018-01-18T01:06:11.881Z,21.32
2018-01-18T01:06:43.502Z,21.37
2018-01-18T01:07:15.126Z,21.39
2018-01-18T01:07:46.746Z,21.43
2018-01-18T01:08:18.367Z,21.41
2018-01-18T01:08:49.990Z,21.44
2018-01-18T01:09:21.614Z,21.43
2018-01-18T01:09:53.273Z,21.42
2018-01-18T01:10:24.893Z,21.40
2018-01-18T01:10:56.514Z,21.43
2018-01-18T01:11:28.185Z,21.44
2018-01-18T01:11:59.806Z,21.42
2018-01-18T01:12:31.434Z,21.40
2018-01-18T01:13:03.057Z,21.32
2018-01-18T01:13:34.678Z,21.39
2018-01-18T01:14:06.297Z,21.42
2018-01-18T01:14:37.934Z,21.39
2018-01-18T01:15:09.594Z,21.42
2018-01-18T01:15:41.223Z,21.38
2018-01-18T01:16:12.854Z,21.39
2018-01-18T01:16:44.523Z,21.37
2018-01-18T01:17:16.150Z,21.41
2018-01-18T01:17:47.782Z,21.41
2018-01-18T01:18:19.446Z,21.43
2018-01-18T01:18:51.078Z,21.44
2018-01-18T01:19:22.706Z,21.41
2018-01-18T01:19:54.375Z,21.45
2018-01-18T01:20:26.007Z,21.45
2018-01-18T01:20:57.634Z,21.45
2018-01-18T01:21:29.262Z,21.48
2018-01-18T01:22:00.894Z,21.44
2018-01-18T01:22:32.523Z,21.43
2018-01-18T01:23:04.158Z,21.45
2018-01-18T01:23:35.792Z,21.47
2018-01-18T01:24:07.414Z,21.49
2018-01-18T01:24:39.042Z,21.48
2018-01-18T01:25:10.706Z,21.45
2018-01-18T01:25:42.334Z,21.44
2018-01-18T01:26:13.963Z,21.43
2018-01-18T01:26:45.629Z,21.42
2018-01-18T01:27:17.252Z,21.41
2018-01-18T01:27:48.886Z,21.42
2018-01-18T01:28:20.520Z,21.43
2018-01-18T01:28:52.163Z,21.48
2018-01-18T01:29:23.818Z,21.46
2018-01-18T01:29:55.454Z,21.48
2018-01-18T01:30:27.078Z,21.45
2018-01-18T01:30:58.763Z,21.44
2018-01-18T01:31:30.398Z,21.43
2018-01-18T01:32:02.062Z,21.44
2018-01-18T01:32:33.694Z,21.42
2018-01-18T01:33:05.350Z,21.42
2018-01-18T01:33:36.976Z,21.44
2018-01-18T01:34:08.606Z,21.48
2018-01-18T01:34:40.238Z,21.46
2018-01-18T01:35:11.861Z,21.46
2018-01-18T01:35:43.481Z,21.47
2018-01-18T01:36:15.141Z,21.46
2018-01-18T01:36:46.810Z,21.46
2018-01-18T01:37:18.429Z,21.47
2018-01-18T01:37:50.049Z,21.47
2018-01-18T01:38:21.674Z,21.47
2018-01-18T01:38:53.302Z,21.46
2018-01-18T01:39:24.939Z,21.45
2018-01-18T01:39:56.570Z,21.43
2018-01-18T01:40:28.196Z,21.43
2018-01-18T01:40:59.822Z,21.40
2018-01-18T01:41:31.454Z,21.43
2018-01-18T01:42:03.136Z,21.42
2018-01-18T01:42:34.762Z,21.42
2018-01-18T01:43:06.382Z,21.42
2018-01-18T01:43:38.006Z,21.44
2018-01-18T01:44:09.634Z,21.41
2018-01-18T01:44:41.253Z,21.40
2018-01-18T01:45:12.882Z,21.39
2018-01-18T01:45:44.518Z,21.40
2018-01-18T01:46:16.137Z,21.37
2018-01-18T01:46:47.765Z,21.36
2018-01-18T01:47:19.433Z,21.37
2018-01-18T01:47:51.053Z,21.39
2018-01-18T01:48:22.677Z,21.36
2018-01-18T01:48:54.298Z,21.33
2018-01-18T01:49:25.926Z,21.33
2018-01-18T01:49:57.554Z,21.31
2018-01-18T01:50:29.186Z,21.34
2018-01-18T01:51:00.805Z,21.33
2018-01-18T01:51:32.425Z,21.31
2018-01-18T01:52:04.046Z,21.30
2018-01-18T01:52:35.669Z,21.29
2018-01-18T01:53:07.293Z,21.25
2018-01-18T01:53:38.926Z,21.22
2018-01-18T01:54:10.553Z,21.22
2018-01-18T01:54:42.178Z,21.21
2018-01-18T01:55:13.805Z,21.20
2018-01-18T01:55:45.435Z,21.21
2018-01-18T01:56:17.061Z,21.20
2018-01-18T01:56:48.677Z,21.16
2018-01-18T01:57:20.301Z,21.15
2018-01-18T01:57:51.926Z,21.18
2018-01-18T01:58:23.545Z,21.16
2018-01-18T01:58:55.174Z,21.17
2018-01-18T01:59:26.793Z,21.16
2018-01-18T01:59:58.434Z,21.15
2018-01-18T02:00:30.100Z,21.01
2018-01-18T02:01:01.805Z,21.12
2018-01-18T02:01:33.454Z,21.13
2018-01-18T02:02:05.142Z,21.22
2018-01-18T02:02:36.767Z,21.22
2018-01-18T02:03:08.436Z,21.21
2018-01-18T02:03:40.062Z,21.21
2018-01-18T02:04:11.689Z,21.23
2018-01-18T02:04:43.318Z,21.24
2018-01-18T02:05:14.942Z,21.21
2018-01-18T02:05:46.566Z,21.27
2018-01-18T02:06:18.202Z,21.25
2018-01-18T02:06:49.857Z,21.24
2018-01-18T02:07:21.486Z,21.25
2018-01-18T02:07:53.173Z,21.25
2018-01-18T02:08:24.793Z,21.21
2018-01-18T02:08:56.435Z,21.21
2018-01-18T02:09:28.066Z,21.20
2018-01-18T02:09:59.721Z,21.21
2018-01-18T02:10:31.355Z,21.19
2018-01-18T02:11:02.973Z,21.20
2018-01-18T02:11:34.602Z,21.19
2018-01-18T02:12:06.226Z,21.21
2018-01-18T02:12:37.849Z,21.24
2018-01-18T02:13:09.522Z,21.25
2018-01-18T02:13:41.142Z,21.32
2018-01-18T02:14:12.809Z,21.34
2018-01-18T02:14:44.438Z,21.39
2018-01-18T02:15:16.067Z,21.42
2018-01-18T02:15:51.528Z,21.42
2018-01-18T02:16:24.010Z,21.42
2018-01-18T02:16:55.682Z,21.46
2018-01-18T02:17:27.314Z,21.36
2018-01-18T02:17:58.936Z,21.44
2018-01-18T02:18:30.607Z,21.43
2018-01-18T02:19:02.230Z,21.33
2018-01-18T02:19:33.849Z,21.39
2018-01-18T02:20:05.509Z,21.36
2018-01-18T02:20:37.133Z,21.34
2018-01-18T02:21:08.758Z,21.31
2018-01-18T02:21:40.390Z,21.28
2018-01-18T02:22:12.013Z,21.24
2018-01-18T02:22:43.634Z,21.25
2018-01-18T02:23:15.253Z,21.23
2018-01-18T02:23:46.873Z,21.26
2018-01-18T02:24:18.498Z,21.24
2018-01-18T02:24:50.161Z,21.29
2018-01-18T02:25:21.786Z,21.30
2018-01-18T02:25:53.466Z,21.32
2018-01-18T02:26:25.091Z,21.34
2018-01-18T02:26:56.715Z,21.32
2018-01-18T02:27:28.338Z,21.33
2018-01-18T02:27:59.957Z,21.35
2018-01-18T02:28:31.586Z,21.34
2018-01-18T02:29:03.225Z,21.25
2018-01-18T02:29:34.857Z,21.27
2018-01-18T02:30:06.495Z,21.34
2018-01-18T02:30:38.158Z,21.28
2018-01-18T02:31:09.842Z,21.31
2018-01-18T02:31:41.465Z,21.40
2018-01-18T02:32:13.086Z,21.30
2018-01-18T02:32:44.751Z,21.41
2018-01-18T02:33:16.438Z,21.39
2018-01-18T02:33:48.104Z,21.43
2018-01-18T02:34:23.532Z,21.43
2018-01-18T02:34:55.172Z,21.43
2018-01-18T02:35:26.834Z,21.40
2018-01-18T02:35:58.475Z,21.42
2018-01-18T02:36:30.243Z,21.43
2018-01-18T02:37:01.877Z,21.43
2018-01-18T02:37:33.514Z,21.43
2018-01-18T02:38:05.164Z,21.42
2018-01-18T02:38:36.794Z,21.43
2018-01-18T02:39:08.427Z,21.45
2018-01-18T02:39:40.059Z,21.44
2018-01-18T02:40:11.689Z,21.45
2018-01-18T02:40:43.318Z,21.43
2018-01-18T02:41:14.977Z,21.40
2018-01-18T02:41:46.598Z,21.40
2018-01-18T02:42:18.231Z,21.40
2018-01-18T02:42:49.867Z,21.40
2018-01-18T02:43:21.494Z,21.38
2018-01-18T02:43:53.123Z,21.38
2018-01-18T02:44:24.785Z,21.37
2018-01-18T02:44:56.415Z,21.37
2018-01-18T02:45:28.043Z,21.36
2018-01-18T02:45:59.669Z,21.38
2018-01-18T02:46:31.302Z,21.37
2018-01-18T02:47:02.931Z,21.36
2018-01-18T02:47:34.561Z,21.35
2018-01-18T02:48:06.229Z,21.27
2018-01-18T02:48:37.858Z,21.34
2018-01-18T02:49:09.485Z,21.31
2018-01-18T02:49:41.136Z,21.29
2018-01-18T02:50:12.762Z,21.27
2018-01-18T02:50:44.398Z,21.29
2018-01-18T02:51:16.021Z,21.27
2018-01-18T02:51:47.642Z,21.18
2018-01-18T02:52:19.270Z,21.17
2018-01-18T02:52:50.938Z,21.27
2018-01-18T02:53:22.562Z,21.27
2018-01-18T02:53:54.191Z,21.27
2018-01-18T02:54:25.830Z,21.27
2018-01-18T02:54:57.462Z,21.28
2018-01-18T02:55:29.094Z,21.21
2018-01-18T02:56:01.779Z,21.30
2018-01-18T02:56:33.415Z,21.33
2018-01-18T02:57:05.062Z,21.36
2018-01-18T02:57:36.735Z,21.35
2018-01-18T02:58:09.020Z,21.35
2018-01-18T02:58:40.654Z,21.38
2018-01-18T02:59:12.290Z,21.41
2018-01-18T02:59:43.956Z,21.34
2018-01-18T03:00:15.592Z,21.41
2018-01-18T03:00:47.222Z,21.40
2018-01-18T03:01:18.847Z,21.37
2018-01-18T03:01:50.522Z,21.35
2018-01-18T03:02:22.151Z,21.34
2018-01-18T03:02:53.820Z,21.34
2018-01-18T03:03:25.450Z,21.33
2018-01-18T03:03:57.082Z,21.32
2018-01-18T03:04:28.714Z,21.30
2018-01-18T03:05:00.349Z,21.29
2018-01-18T03:05:31.974Z,21.31
2018-01-18T03:06:03.649Z,21.31
2018-01-18T03:06:35.279Z,21.29
2018-01-18T03:07:06.906Z,20.46
2018-01-18T03:07:38.542Z,21.23
2018-01-18T03:08:10.210Z,21.25
2018-01-18T03:08:41.852Z,21.25
2018-01-18T03:09:13.518Z,21.24
2018-01-18T03:09:45.146Z,21.24
2018-01-18T03:10:16.774Z,21.22
2018-01-18T03:10:48.403Z,21.25
2018-01-18T03:11:20.026Z,21.24
2018-01-18T03:11:51.695Z,21.24
2018-01-18T03:12:23.322Z,21.24
2018-01-18T03:12:54.989Z,21.25
2018-01-18T03:13:26.660Z,21.26
2018-01-18T03:13:58.294Z,21.22
2018-01-18T03:14:29.922Z,21.21
2018-01-18T03:15:01.595Z,21.20
2018-01-18T03:15:33.224Z,21.18
2018-01-18T03:16:04.971Z,21.18
2018-01-18T03:16:36.643Z,21.10
2018-01-18T03:17:08.340Z,21.17
2018-01-18T03:17:40.005Z,21.19
2018-01-18T03:18:11.648Z,21.05
2018-01-18T03:18:43.302Z,21.21
2018-01-18T03:19:14.947Z,21.20
2018-01-18T03:19:46.634Z,21.13
2018-01-18T03:20:18.297Z,21.22
2018-01-18T03:20:49.934Z,21.22
2018-01-18T03:21:21.566Z,21.23
2018-01-18T03:21:53.218Z,21.22
2018-01-18T03:22:24.854Z,21.21
2018-01-18T03:22:56.491Z,21.12
2018-01-18T03:23:28.134Z,21.22
2018-01-18T03:23:59.868Z,21.19
2018-01-18T03:24:31.587Z,21.12
2018-01-18T03:25:03.251Z,21.09
2018-01-18T03:25:34.918Z,21.02
2018-01-18T03:26:06.579Z,21.18
2018-01-18T03:26:38.254Z,21.20
2018-01-18T03:27:09.915Z,21.12
2018-01-18T03:27:41.546Z,21.14
2018-01-18T03:28:13.207Z,21.18
2018-01-18T03:28:44.880Z,21.24
2018-01-18T03:29:16.586Z,21.26
2018-01-18T03:29:48.222Z,21.27
2018-01-18T03:30:19.877Z,21.17
2018-01-18T03:30:51.523Z,21.25
2018-01-18T03:31:23.160Z,21.14
2018-01-18T03:31:54.814Z,21.24
2018-01-18T03:32:26.456Z,21.23
2018-01-18T03:32:58.089Z,21.24
2018-01-18T03:33:29.735Z,21.23
2018-01-18T03:34:01.380Z,21.26
2018-01-18T03:34:33.091Z,21.25
2018-01-18T03:35:04.767Z,21.28
2018-01-18T03:35:36.432Z,21.31
2018-01-18T03:36:08.096Z,21.29
2018-01-18T03:44:04.782Z,21.23
2018-01-18T03:44:36.492Z,21.29
2018-01-18T03:45:08.135Z,21.41
2018-01-18T03:45:39.794Z,21.34
2018-01-18T03:46:11.442Z,21.42
2018-01-18T03:46:43.121Z,21.29
2018-01-18T03:47:14.812Z,21.43
2018-01-18T03:47:46.452Z,21.44
2018-01-18T03:48:18.078Z,21.34
2018-01-18T03:48:49.714Z,21.31
2018-01-18T03:49:21.347Z,21.45
2018-01-18T03:49:52.973Z,21.35
2018-01-18T03:50:24.611Z,21.40
2018-01-18T03:50:56.251Z,21.43
2018-01-18T03:51:27.882Z,21.41
2018-01-18T03:51:59.542Z,21.40
2018-01-18T03:52:31.228Z,21.29
2018-01-18T03:53:02.959Z,21.34
2018-01-18T03:53:34.781Z,21.43
2018-01-18T03:54:06.442Z,21.43
2018-01-18T03:54:38.162Z,21.41
2018-01-18T03:55:09.876Z,21.34
2018-01-18T03:55:41.522Z,21.45
2018-01-18T03:56:13.170Z,21.49
2018-01-18T03:56:44.803Z,21.31
2018-01-18T03:57:16.434Z,21.49
2018-01-18T03:57:48.065Z,21.40
2018-01-18T03:58:19.746Z,21.37
2018-01-18T03:58:51.374Z,21.43
2018-01-18T03:59:22.995Z,21.39
2018-01-18T03:59:54.622Z,21.49
2018-01-18T04:00:26.482Z,21.47
2018-01-18T04:00:58.195Z,21.48
2018-01-18T04:01:29.844Z,21.44
2018-01-18T04:02:01.483Z,21.44
2018-01-18T04:02:33.166Z,21.38
2018-01-18T04:03:04.810Z,21.39
2018-01-18T04:03:36.607Z,21.50
2018-01-18T04:04:08.247Z,21.47
2018-01-18T04:04:39.899Z,21.48
2018-01-18T04:05:11.535Z,21.46
2018-01-18T04:05:43.169Z,21.41
2018-01-18T04:06:14.798Z,21.42
2018-01-18T04:06:46.426Z,21.42
2018-01-18T04:07:18.059Z,21.43
2018-01-18T04:07:49.873Z,21.40
2018-01-18T04:08:22.268Z,21.39
2018-01-18T04:08:53.953Z,21.37
2018-01-18T04:09:25.578Z,21.36
2018-01-18T04:09:57.205Z,21.39
2018-01-18T04:10:28.830Z,21.38
2018-01-18T04:11:00.458Z,21.39
2018-01-18T04:11:32.082Z,21.37
2018-01-18T04:12:03.714Z,21.36
2018-01-18T04:12:35.342Z,21.34
2018-01-18T04:13:06.970Z,21.33
2018-01-18T04:13:38.599Z,21.32
2018-01-18T04:14:10.271Z,21.30
2018-01-18T04:14:41.922Z,21.30
2018-01-18T04:15:13.550Z,21.30
2018-01-18T04:15:45.190Z,21.22
2018-01-18T04:16:16.815Z,21.28
2018-01-18T04:16:48.446Z,21.24
2018-01-18T04:17:20.075Z,21.24
2018-01-18T04:17:51.706Z,21.26
2018-01-18T04:18:23.366Z,21.22
2018-01-18T04:18:55.033Z,21.18
2018-01-18T04:19:26.667Z,21.15
2018-01-18T04:19:58.289Z,21.09
2018-01-18T04:20:29.914Z,21.07
2018-01-18T04:21:01.573Z,21.01
2018-01-18T04:21:33.197Z,20.97
2018-01-18T04:22:04.850Z,20.95
2018-01-18T04:22:36.529Z,20.75
2018-01-18T04:23:08.166Z,20.85
2018-01-18T04:23:39.838Z,20.87
2018-01-18T04:24:11.533Z,20.83
2018-01-18T04:24:43.203Z,20.81
2018-01-18T04:25:14.854Z,20.89
2018-01-18T04:25:46.477Z,20.87
2018-01-18T04:26:19.776Z,20.83
2018-01-18T04:26:51.430Z,20.84
2018-01-18T04:27:23.435Z,20.86
2018-01-18T04:27:55.062Z,20.84
2018-01-18T04:28:26.874Z,20.85
2018-01-18T04:29:00.597Z,20.84
2018-01-18T04:29:32.804Z,20.77
2018-01-18T04:30:04.451Z,20.84
2018-01-18T04:30:36.094Z,20.75
2018-01-18T04:31:08.499Z,20.81
2018-01-18T04:31:40.142Z,20.80
2018-01-18T04:32:11.778Z,20.76
2018-01-18T04:32:43.441Z,20.86
2018-01-18T04:33:18.323Z,20.89
2018-01-18T04:33:49.998Z,20.79
2018-01-18T04:34:21.630Z,20.86
2018-01-18T04:34:53.272Z,20.86
2018-01-18T04:35:24.918Z,20.89
2018-01-18T04:35:56.551Z,20.83
2018-01-18T04:36:28.183Z,20.84
2018-01-18T04:36:59.816Z,20.86
2018-01-18T04:37:31.486Z,20.78
2018-01-18T04:38:03.123Z,20.80
2018-01-18T04:38:34.758Z,20.87
2018-01-18T04:39:06.395Z,20.91
2018-01-18T04:39:38.071Z,20.76
2018-01-18T04:40:09.711Z,20.86
2018-01-18T04:40:41.351Z,20.94
2018-01-18T04:41:12.987Z,20.98
2018-01-18T04:41:44.642Z,20.92
2018-01-18T04:42:16.285Z,21.01
2018-01-18T04:42:47.962Z,21.00
2018-01-18T04:43:19.632Z,20.92
2018-01-18T04:43:51.271Z,20.90
2018-01-18T04:44:22.948Z,21.00
2018-01-18T04:44:54.583Z,21.01
2018-01-18T04:45:26.235Z,20.99
2018-01-18T04:45:57.858Z,21.02
2018-01-18T04:46:29.487Z,21.02
2018-01-18T04:47:01.110Z,21.03
2018-01-18T04:47:32.734Z,21.03
2018-01-18T04:48:04.362Z,21.06
2018-01-18T04:48:36.250Z,21.08
2018-01-18T04:49:07.879Z,21.11
2018-01-18T04:49:39.518Z,21.12
2018-01-18T04:50:11.154Z,21.18
2018-01-18T04:50:42.779Z,21.19
2018-01-18T04:51:14.406Z,21.19
2018-01-18T04:51:46.035Z,21.24
2018-01-18T04:52:17.666Z,21.28
2018-01-18T04:52:50.407Z,21.27
2018-01-18T04:53:22.051Z,21.26
2018-01-18T04:53:53.734Z,21.32
2018-01-18T04:54:25.367Z,21.33
2018-01-18T04:54:57.004Z,21.31
2018-01-18T04:55:28.656Z,21.32
2018-01-18T04:56:00.291Z,21.35
2018-01-18T04:56:31.947Z,21.36
2018-01-18T04:57:03.589Z,21.42
2018-01-18T04:57:35.235Z,21.43
2018-01-18T04:58:06.875Z,21.48
2018-01-18T04:58:38.583Z,21.46
2018-01-18T04:59:10.222Z,21.50
2018-01-18T04:59:41.866Z,21.49
2018-01-18T05:00:13.519Z,21.52
2018-01-18T05:00:45.152Z,21.57
2018-01-18T05:01:16.794Z,21.55
2018-01-18T05:01:48.483Z,21.59
2018-01-18T05:02:20.177Z,21.63
2018-01-18T05:02:51.802Z,21.63
2018-01-18T05:03:23.430Z,21.60
2018-01-18T05:03:55.058Z,21.57
2018-01-18T05:04:27.633Z,21.64
2018-01-18T05:04:59.261Z,21.75
2018-01-18T05:05:31.211Z,21.80
2018-01-18T05:06:02.846Z,21.77
2018-01-18T05:06:36.462Z,21.70
2018-01-18T05:07:08.151Z,21.75
2018-01-18T05:07:39.802Z,21.76
2018-01-18T05:08:11.425Z,21.78
2018-01-18T05:08:43.062Z,21.72
2018-01-18T05:09:14.693Z,21.72
2018-01-18T05:09:46.314Z,21.76
2018-01-18T05:10:17.994Z,21.67
2018-01-18T05:10:49.621Z,21.76
2018-01-18T05:11:21.290Z,21.83
2018-01-18T05:11:53.000Z,21.84
2018-01-18T05:12:25.270Z,21.85
2018-01-18T05:12:56.918Z,21.88
2018-01-18T05:13:28.596Z,21.85
2018-01-18T05:14:00.248Z,21.78
2018-01-18T05:14:32.755Z,21.73
2018-01-18T05:15:04.386Z,21.73
2018-01-18T05:15:36.047Z,21.73
2018-01-18T05:16:07.673Z,21.73
2018-01-18T05:16:39.307Z,21.73
2018-01-18T05:17:10.970Z,21.70
2018-01-18T05:17:42.594Z,21.66
2018-01-18T05:18:14.262Z,21.63
2018-01-18T05:18:45.933Z,21.60
2018-01-18T05:19:17.558Z,21.58
2018-01-18T05:19:49.334Z,21.53
2018-01-18T05:20:20.962Z,21.49
2018-01-18T05:20:52.621Z,21.44
2018-01-18T05:21:24.286Z,21.43
2018-01-18T05:21:55.920Z,21.41
2018-01-18T05:22:27.546Z,21.37
2018-01-18T05:22:59.165Z,21.36
2018-01-18T05:23:30.792Z,21.34
2018-01-18T05:24:02.422Z,21.34
2018-01-18T05:24:34.053Z,21.32
2018-01-18T05:25:05.726Z,21.30
2018-01-18T05:25:37.354Z,21.27
2018-01-18T05:26:08.986Z,21.26
2018-01-18T05:26:40.662Z,21.23
2018-01-18T05:27:12.286Z,21.22
2018-01-18T05:27:43.916Z,21.21
2018-01-18T05:28:15.544Z,21.20
2018-01-18T05:28:47.181Z,21.22
2018-01-18T05:29:18.801Z,21.22
2018-01-18T05:29:50.422Z,21.22
2018-01-18T05:30:22.090Z,21.22
2018-01-18T05:30:53.730Z,21.21
2018-01-18T05:31:25.370Z,21.21
2018-01-18T05:31:57.008Z,21.17
2018-01-18T05:32:28.671Z,21.18
2018-01-18T05:33:00.302Z,21.15
2018-01-18T05:33:31.926Z,21.13
2018-01-18T05:34:03.553Z,21.12
2018-01-18T05:34:35.176Z,21.12
2018-01-18T05:35:06.802Z,21.11
2018-01-18T05:35:38.465Z,21.09
2018-01-18T05:36:10.086Z,21.09
2018-01-18T05:36:41.709Z,21.07
2018-01-18T05:37:13.374Z,21.06
2018-01-18T05:37:45.008Z,21.05
2018-01-18T05:38:16.638Z,21.04
2018-01-18T05:38:48.265Z,21.03
2018-01-18T05:39:19.885Z,21.01
2018-01-18T05:39:51.513Z,21.00
2018-01-18T05:40:23.137Z,20.98
2018-01-18T05:40:54.762Z,20.97
2018-01-18T05:41:26.389Z,20.98
2018-01-18T05:41:58.053Z,20.95
2018-01-18T05:42:29.686Z,20.94
2018-01-18T05:43:01.314Z,20.96
2018-01-18T05:43:32.943Z,20.95
2018-01-18T05:44:04.578Z,20.94
2018-01-18T05:44:36.210Z,20.93
2018-01-18T05:45:07.837Z,20.91
2018-01-18T05:45:39.462Z,20.91
2018-01-18T05:46:11.094Z,20.94
2018-01-18T05:46:42.727Z,20.94
2018-01-18T05:47:14.409Z,20.95
2018-01-18T05:47:46.029Z,20.95
2018-01-18T05:48:17.657Z,20.94
2018-01-18T05:48:49.287Z,20.93
2018-01-18T05:49:20.910Z,20.92
2018-01-18T05:49:52.530Z,20.92
2018-01-18T05:50:24.150Z,20.94
2018-01-18T05:50:55.778Z,20.94
2018-01-18T05:51:27.401Z,20.93
2018-01-18T05:51:59.032Z,20.94
2018-01-18T05:52:30.703Z,20.94
2018-01-18T05:53:02.331Z,20.95
2018-01-18T05:53:36.141Z,20.96
2018-01-18T05:54:07.765Z,20.98
2018-01-18T05:54:39.402Z,20.99
2018-01-18T05:55:11.035Z,21.01
2018-01-18T05:55:42.750Z,21.02
2018-01-18T05:56:14.372Z,21.03
2018-01-18T05:56:46.019Z,21.06
2018-01-18T05:57:17.641Z,21.04
2018-01-18T05:57:49.265Z,21.07
2018-01-18T05:58:20.886Z,21.08
2018-01-18T05:58:52.553Z,21.07
2018-01-18T05:59:24.222Z,21.08
2018-01-18T05:59:55.850Z,21.12
2018-01-18T06:00:27.473Z,21.13
2018-01-18T06:00:59.098Z,21.15
2018-01-18T06:01:30.730Z,21.21
2018-01-18T06:02:02.350Z,21.24
2018-01-18T06:02:33.974Z,21.20
2018-01-18T06:03:05.597Z,21.29
2018-01-18T06:03:37.222Z,21.32
2018-01-18T06:04:08.845Z,21.32
2018-01-18T06:04:40.523Z,21.35
2018-01-18T06:05:12.154Z,21.37
2018-01-18T06:05:43.782Z,21.35
2018-01-18T06:06:15.405Z,21.35
2018-01-18T06:06:47.038Z,21.32
2018-01-18T06:07:18.661Z,21.37
2018-01-18T06:07:50.332Z,21.41
2018-01-18T06:08:21.942Z,21.45
2018-01-18T06:08:53.565Z,21.43
2018-01-18T06:09:25.184Z,21.45
2018-01-18T06:09:56.938Z,21.47
2018-01-18T06:10:28.566Z,21.48
2018-01-18T06:11:00.194Z,21.52
2018-01-18T06:11:31.817Z,21.54
2018-01-18T06:12:03.447Z,21.57
2018-01-18T06:12:35.069Z,21.52
2018-01-18T06:13:06.694Z,21.56
2018-01-18T06:13:38.325Z,21.54
2018-01-18T06:14:09.955Z,21.51
2018-01-18T06:14:41.578Z,21.53
2018-01-18T06:15:13.250Z,21.55
2018-01-18T06:15:44.876Z,21.55
2018-01-18T06:16:16.505Z,21.57
2018-01-18T06:16:48.136Z,21.55
2018-01-18T06:17:19.753Z,21.57
2018-01-18T06:17:51.421Z,21.57
2018-01-18T06:18:23.050Z,21.59
2018-01-18T06:18:54.674Z,21.61
2018-01-18T06:19:26.294Z,21.57
2018-01-18T06:19:57.913Z,21.55
2018-01-18T06:20:29.542Z,21.58
2018-01-18T06:21:01.165Z,21.56
2018-01-18T06:21:33.205Z,21.53
2018-01-18T06:22:04.829Z,21.53
2018-01-18T06:22:36.494Z,21.58
2018-01-18T06:23:08.114Z,21.56
2018-01-18T06:23:39.734Z,21.57
2018-01-18T06:24:11.393Z,21.55
2018-01-18T06:24:43.013Z,21.56
2018-01-18T06:25:14.638Z,21.58
2018-01-18T06:25:46.257Z,21.59
2018-01-18T06:26:17.874Z,21.54
2018-01-18T06:26:49.498Z,21.48
2018-01-18T06:27:21.130Z,21.47
2018-01-18T06:27:52.758Z,21.44
2018-01-18T06:28:24.386Z,21.43
2018-01-18T06:28:56.010Z,21.41
2018-01-18T06:29:27.686Z,21.41
2018-01-18T06:29:59.314Z,21.42
2018-01-18T06:30:30.933Z,21.43
2018-01-18T06:31:02.553Z,21.42
2018-01-18T06:31:34.182Z,21.41
2018-01-18T06:32:05.810Z,21.34
2018-01-18T06:32:37.434Z,21.40
2018-01-18T06:33:09.068Z,21.40
2018-01-18T06:33:40.698Z,21.42
2018-01-18T06:34:12.320Z,21.37
2018-01-18T06:34:43.982Z,21.35
2018-01-18T06:35:15.609Z,21.32
2018-01-18T06:35:47.234Z,21.30
2018-01-18T06:36:18.853Z,21.27
2018-01-18T06:36:50.482Z,21.29
2018-01-18T06:37:22.110Z,21.28
2018-01-18T06:37:53.738Z,21.30
2018-01-18T06:38:25.453Z,21.31
2018-01-18T06:38:57.070Z,21.27
2018-01-18T06:39:28.690Z,21.29
2018-01-18T06:40:00.322Z,21.24
2018-01-18T06:40:31.944Z,21.25
2018-01-18T06:41:03.565Z,21.24
2018-01-18T06:41:35.185Z,21.22
2018-01-18T06:42:06.810Z,21.24
2018-01-18T06:42:38.433Z,21.22
2018-01-18T06:43:10.058Z,21.19
2018-01-18T06:43:41.687Z,21.18
2018-01-18T06:44:13.320Z,21.18
2018-01-18T06:44:44.946Z,21.17
2018-01-18T06:45:16.565Z,21.16
2018-01-18T06:45:48.225Z,21.15
2018-01-18T06:46:19.853Z,21.14
2018-01-18T06:46:51.474Z,21.16
2018-01-18T06:47:23.093Z,21.17
2018-01-18T06:47:54.718Z,21.17
2018-01-18T06:48:26.345Z,21.16
2018-01-18T06:48:57.974Z,21.12
2018-01-18T06:49:29.593Z,21.09
2018-01-18T06:50:01.216Z,21.07
2018-01-18T06:50:32.841Z,21.05
2018-01-18T06:51:04.506Z,21.02
2018-01-18T06:51:36.139Z,21.02
2018-01-18T06:52:07.766Z,21.01
2018-01-18T06:52:39.390Z,21.00
2018-01-18T06:53:11.017Z,20.96
2018-01-18T06:53:42.642Z,20.96
2018-01-18T06:54:14.288Z,20.94
2018-01-18T06:54:45.914Z,20.95
2018-01-18T06:55:17.538Z,20.95